To NAV CANADA Home Page Login to a new session Search on AWWS site Feedback and Comments Disclaimer Vers la page française équivalente Tips FAQ What's new on the site To the Forecasts and Observations / NOTAM section To "File a Flight Plan" website Publications and other links Update of the User's profile FIC Telephone Numbers My Weather Data Folder Route Weather Data Regional Weather Data Local Weather Data To the Forecasts and Observations / NOTAM section
Request Generated 04/19/2014 at 04:22:21 UTC . Weather information available at that time is displayed.

METAR/TAF

KUUJJUAQ/QC    

METAR CYVP 190400Z 24004KT 15SM FEW230 M16/M20 A3026 RMK CI1 SLP250=
METAR CYVP 190300Z 26005KT 15SM SKC M15/M20 A3026 RMK SLP251=
METAR CYVP 190200Z 22009KT 15SM SKC M15/M20 A3026 RMK SLP250=

TAF CYVP 182338Z 1900/1912 29008KT P6SM FEW030
BECMG 1901/1903 25008KT
RMK NXT FCST BY 190600Z=
Your time UTC time
Weather data provided by Environment Canada and NAV CANADA